createdAt,value
2023-05-12T00:01:17.252Z,101896.28
2023-05-12T00:03:44.128Z,101899.53
2023-05-12T00:06:11.326Z,101893.59
2023-05-12T00:08:38.034Z,101901.09
2023-05-12T00:11:04.583Z,101899.44
2023-05-12T00:13:31.341Z,101893.28
2023-05-12T00:15:59.363Z,101892.22
2023-05-12T00:18:28.198Z,101890.59
2023-05-12T00:20:55.231Z,101886.78
2023-05-12T00:23:22.699Z,101890.53
2023-05-12T00:25:49.891Z,101888.09
2023-05-12T00:28:17.819Z,101881.59
2023-05-12T00:30:44.358Z,101879.97
2023-05-12T00:33:11.129Z,101877.53
2023-05-12T00:35:37.552Z,101876.19
2023-05-12T00:38:04.035Z,101875.91
2023-05-12T00:40:30.501Z,101876.75
2023-05-12T00:42:57.024Z,101879.44
2023-05-12T00:45:23.823Z,101874.06
2023-05-12T00:47:52.342Z,101869.97
2023-05-12T00:50:19.180Z,101869.69
2023-05-12T00:52:47.072Z,101871.56
2023-05-12T00:55:13.506Z,101872.09
2023-05-12T00:57:41.105Z,101863.56
2023-05-12T01:00:08.824Z,101871.03
2023-05-12T01:02:36.532Z,101865.09
2023-05-12T01:05:04.219Z,101860.00
2023-05-12T01:07:32.998Z,101863.44
2023-05-12T01:09:59.605Z,101855.88
2023-05-12T01:12:27.146Z,101854.31
2023-05-12T01:14:56.259Z,101851.06
2023-05-12T01:17:32.085Z,101850.28
2023-05-12T01:20:04.656Z,101849.94
2023-05-12T01:22:33.551Z,101845.63
2023-05-12T01:25:09.831Z,101843.50
2023-05-12T01:27:39.705Z,101848.09
2023-05-12T01:30:06.966Z,101842.16
2023-05-12T01:32:34.444Z,101838.09
2023-05-12T01:35:00.940Z,101841.88
2023-05-12T01:37:27.536Z,101840.81
2023-05-12T01:39:55.079Z,101834.41
2023-05-12T01:42:21.625Z,101845.41
2023-05-12T01:44:48.080Z,101845.31
2023-05-12T01:47:15.957Z,101839.72
2023-05-12T01:49:42.733Z,101844.84
2023-05-12T01:52:09.253Z,101842.41
2023-05-12T01:54:36.067Z,101844.25
2023-05-12T01:57:02.667Z,101856.06
2023-05-12T01:59:28.996Z,101842.41
2023-05-12T02:01:55.550Z,101851.25
2023-05-12T02:04:22.174Z,101845.59
2023-05-12T02:06:48.555Z,101846.16
2023-05-12T02:09:15.129Z,101843.47
2023-05-12T02:11:41.782Z,101850.47
2023-05-12T02:14:08.156Z,101842.63
2023-05-12T02:16:34.618Z,101843.47
2023-05-12T02:19:01.361Z,101846.16
2023-05-12T02:21:28.061Z,101833.78
2023-05-12T02:23:54.495Z,101836.47
2023-05-12T02:26:21.155Z,101842.63
2023-05-12T02:28:47.799Z,101840.22
2023-05-12T02:31:14.230Z,101837.53
2023-05-12T02:33:40.596Z,101832.38
2023-05-12T02:36:07.536Z,101829.66
2023-05-12T02:38:34.122Z,101830.47
2023-05-12T02:41:01.037Z,101827.78
2023-05-12T02:43:27.731Z,101830.47
2023-05-12T02:45:54.843Z,101831.78
2023-05-12T02:48:21.317Z,101829.91
2023-05-12T02:50:47.664Z,101832.59
2023-05-12T02:53:14.063Z,101829.66
2023-05-12T02:55:40.575Z,101816.25
2023-05-12T02:58:07.081Z,101821.03
2023-05-12T03:00:33.518Z,101823.47
2023-05-12T03:03:00.081Z,101825.34
2023-05-12T03:05:26.812Z,101822.94
2023-05-12T03:07:53.227Z,101825.63
2023-05-12T03:10:19.942Z,101821.84
2023-05-12T03:12:46.585Z,101821.03
2023-05-12T03:15:12.965Z,101822.09
2023-05-12T03:17:39.509Z,101818.63
2023-05-12T03:20:06.867Z,101820.25
2023-05-12T03:22:33.752Z,101816.47
2023-05-12T03:25:00.176Z,101809.25
2023-05-12T03:27:26.791Z,101819.16
2023-05-12T03:29:53.272Z,101819.41
2023-05-12T03:32:19.734Z,101819.16
2023-05-12T03:34:46.213Z,101817.00
2023-05-12T03:37:12.652Z,101816.47
2023-05-12T03:39:39.088Z,101813.28
2023-05-12T03:42:05.986Z,101811.19
2023-05-12T03:44:32.396Z,101812.72
2023-05-12T03:46:58.903Z,101806.06
2023-05-12T03:49:25.447Z,101811.19
2023-05-12T03:51:51.995Z,101809.00
2023-05-12T03:54:18.437Z,101808.50
2023-05-12T03:56:44.952Z,101806.59
2023-05-12T03:59:12.083Z,101806.59
2023-05-12T04:01:38.836Z,101802.31
2023-05-12T04:04:05.294Z,101802.88
2023-05-12T04:06:31.742Z,101798.88
2023-05-12T04:08:58.805Z,101794.88
2023-05-12T04:11:25.261Z,101801.59
2023-05-12T04:13:51.660Z,101807.31
2023-05-12T04:16:18.287Z,101800.63
2023-05-12T04:18:44.737Z,101801.69
2023-05-12T04:21:11.290Z,101807.63
2023-05-12T04:23:37.723Z,101811.66
2023-05-12T04:26:05.216Z,101811.41
2023-05-12T04:28:32.017Z,101809.53
2023-05-12T04:31:04.927Z,101809.53
2023-05-12T04:33:31.538Z,101813.84
2023-05-12T04:35:58.262Z,101816.53
2023-05-12T04:38:24.777Z,101821.66
2023-05-12T04:40:51.241Z,101823.84
2023-05-12T04:45:47.246Z,101824.13
2023-05-12T04:48:13.616Z,101823.34
2023-05-12T04:50:40.022Z,101821.44
2023-05-12T04:53:06.422Z,101830.34
2023-05-12T04:55:32.930Z,101829.28
2023-05-12T04:57:59.326Z,101830.38
2023-05-12T05:00:25.787Z,101842.50
2023-05-12T05:02:52.396Z,101847.34
2023-05-12T05:05:19.058Z,101850.59
2023-05-12T05:07:45.958Z,101848.75
2023-05-12T05:10:12.598Z,101849.31
2023-05-12T05:12:38.988Z,101858.72
2023-05-12T05:15:06.194Z,101860.66
2023-05-12T05:17:32.685Z,101867.16
2023-05-12T05:19:59.851Z,101864.78
2023-05-12T05:22:27.302Z,101870.69
2023-05-12T05:24:53.760Z,101872.31
2023-05-12T05:27:20.637Z,101875.34
2023-05-12T05:29:47.173Z,101879.69
2023-05-12T05:32:13.664Z,101871.97
2023-05-12T05:34:40.197Z,101873.31
2023-05-12T05:37:06.642Z,101879.81
2023-05-12T05:39:33.143Z,101878.22
2023-05-12T05:41:59.607Z,101868.03
2023-05-12T05:44:26.045Z,101863.22
2023-05-12T05:46:52.576Z,101866.47
2023-05-12T05:49:19.672Z,101873.19
2023-05-12T05:51:46.030Z,101873.50
2023-05-12T05:54:12.363Z,101885.06
2023-05-12T05:56:38.826Z,101892.88
2023-05-12T05:59:05.492Z,101894.00
2023-05-12T06:01:32.839Z,101886.22
2023-05-12T06:03:59.692Z,101890.81
2023-05-12T06:06:26.307Z,101894.06
2023-05-12T06:08:55.830Z,101901.63
2023-05-12T06:11:22.363Z,101899.00
2023-05-12T06:13:48.753Z,101898.72
2023-05-12T06:16:15.115Z,101904.41
2023-05-12T06:18:41.536Z,101908.22
2023-05-12T06:21:08.112Z,101906.59
2023-05-12T06:23:34.495Z,101900.47
2023-05-12T06:26:00.854Z,101911.25
2023-05-12T06:28:27.342Z,101920.19
2023-05-12T06:30:53.848Z,101921.59
2023-05-12T06:33:20.209Z,101918.94
2023-05-12T06:35:46.682Z,101923.81
2023-05-12T06:38:13.014Z,101921.19
2023-05-12T06:40:39.558Z,101920.16
2023-05-12T06:43:06.026Z,101924.25
2023-05-12T06:45:32.536Z,101931.25
2023-05-12T06:47:58.984Z,101940.16
2023-05-12T06:50:25.498Z,101934.78
2023-05-12T06:52:51.925Z,101940.97
2023-05-12T06:55:20.680Z,101937.28
2023-05-12T06:57:47.582Z,101942.66
2023-05-12T07:00:14.581Z,101938.38
2023-05-12T07:02:41.254Z,101936.25
2023-05-12T07:05:08.201Z,101944.38
2023-05-12T07:07:36.026Z,101944.69
2023-05-12T07:10:02.431Z,101937.97
2023-05-12T07:12:28.823Z,101939.88
2023-05-12T07:14:55.168Z,101950.69
2023-05-12T07:17:21.747Z,101950.22
2023-05-12T07:19:48.358Z,101951.56
2023-05-12T07:22:14.796Z,101949.97
2023-05-12T07:24:41.617Z,101952.13
2023-05-12T07:27:08.197Z,101957.31
2023-05-12T07:29:34.929Z,101959.44
2023-05-12T07:32:01.400Z,101961.34
2023-05-12T07:34:27.913Z,101952.16
2023-05-12T07:36:54.320Z,101959.69
2023-05-12T07:39:23.653Z,101949.91
2023-05-12T07:41:51.114Z,101957.97
2023-05-12T07:44:17.547Z,101958.72
2023-05-12T07:46:44.084Z,101966.50
2023-05-12T07:49:10.461Z,101967.97
2023-05-12T07:51:37.085Z,101963.47
2023-05-12T07:54:04.815Z,101966.13
2023-05-12T07:56:31.259Z,101972.03
2023-05-12T07:58:57.688Z,101968.53
2023-05-12T08:01:24.287Z,101972.88
2023-05-12T08:03:51.479Z,101973.31
2023-05-12T08:06:18.438Z,101969.13
2023-05-12T08:08:45.223Z,101972.63
2023-05-12T08:11:12.649Z,101973.94
2023-05-12T08:13:39.486Z,101972.69
2023-05-12T08:16:06.248Z,101975.94
2023-05-12T08:18:32.660Z,101968.69
2023-05-12T08:20:59.045Z,101975.13
2023-05-12T08:23:25.552Z,101973.47
2023-05-12T08:25:51.981Z,101980.34
2023-05-12T08:28:18.478Z,101981.25
2023-05-12T08:30:45.524Z,101981.56
2023-05-12T08:33:12.627Z,101982.13
2023-05-12T08:35:39.595Z,101978.00
2023-05-12T08:38:06.307Z,101988.06
2023-05-12T08:40:37.960Z,101988.66
2023-05-12T08:43:14.168Z,101990.72
2023-05-12T08:45:41.071Z,101986.63
2023-05-12T08:48:10.898Z,101989.16
2023-05-12T08:50:38.888Z,101989.53
2023-05-12T08:53:10.401Z,101992.59
2023-05-12T08:55:37.104Z,101996.09
2023-05-12T08:58:05.066Z,101995.25
2023-05-12T09:00:34.319Z,101997.91
2023-05-12T09:03:02.223Z,101995.31
2023-05-12T09:05:30.759Z,101998.34
2023-05-12T09:08:00.477Z,102000.94
2023-05-12T09:10:35.156Z,102001.28
2023-05-12T09:13:21.777Z,102001.88
2023-05-12T09:15:48.868Z,102014.47
2023-05-12T09:18:15.410Z,102003.50
2023-05-12T09:20:42.563Z,102009.56
2023-05-12T09:23:16.642Z,102014.56
2023-05-12T09:25:43.206Z,102009.34
2023-05-12T09:28:09.751Z,102012.28
2023-05-12T09:30:38.291Z,102007.63
2023-05-12T09:33:06.692Z,102012.66
2023-05-12T09:35:38.555Z,102017.00
2023-05-12T09:38:14.542Z,102016.09
2023-05-12T09:40:41.040Z,102021.03
2023-05-12T09:43:08.202Z,102023.84
2023-05-12T09:45:36.381Z,102022.03
2023-05-12T09:48:10.823Z,102021.22
2023-05-12T09:50:51.398Z,102026.34
2023-05-12T09:53:19.348Z,102034.31
2023-05-12T09:55:47.296Z,102034.13
2023-05-12T09:58:16.290Z,102032.50
2023-05-12T10:01:12.854Z,102038.97
2023-05-12T10:03:31.619Z,102035.75
2023-05-12T10:06:01.462Z,102025.47
2023-05-12T10:08:33.909Z,102030.19
2023-05-12T10:11:02.351Z,102030.84
2023-05-12T10:13:29.390Z,102030.28
2023-05-12T10:15:57.583Z,102037.28
2023-05-12T10:18:24.741Z,102032.13
2023-05-12T10:20:53.547Z,102031.34
2023-05-12T10:23:20.207Z,102032.50
2023-05-12T10:25:47.732Z,102031.97
2023-05-12T10:28:14.188Z,102027.34
2023-05-12T10:30:41.932Z,102021.72
2023-05-12T10:33:11.314Z,102030.53
2023-05-12T10:35:40.050Z,102037.31
2023-05-12T10:38:17.635Z,102028.66
2023-05-12T10:40:53.454Z,102033.22
2023-05-12T10:43:24.577Z,102032.56
2023-05-12T10:46:15.999Z,102030.13
2023-05-12T10:49:13.004Z,102033.75
2023-05-12T10:51:42.357Z,102032.16
2023-05-12T10:54:11.246Z,102026.31
2023-05-12T10:56:38.377Z,102030.59
2023-05-12T10:59:31.920Z,102023.69
2023-05-12T11:02:04.062Z,102024.81
2023-05-12T11:04:37.970Z,102020.56
2023-05-12T11:07:06.208Z,102026.69
2023-05-12T11:09:36.567Z,102031.41
2023-05-12T11:12:08.437Z,102025.22
2023-05-12T11:14:36.423Z,102025.00
2023-05-12T11:17:03.149Z,102025.91
2023-05-12T11:19:30.466Z,102022.72
2023-05-12T11:21:56.937Z,102026.06
2023-05-12T11:24:23.883Z,102023.66
2023-05-12T11:26:52.009Z,102027.78
2023-05-12T11:29:19.888Z,102036.00
2023-05-12T11:31:53.320Z,102032.16
2023-05-12T11:34:24.107Z,102030.34
2023-05-12T11:36:52.792Z,102037.78
2023-05-12T11:39:24.810Z,102033.78
2023-05-12T11:41:56.821Z,102033.06
2023-05-12T11:44:32.509Z,102037.66
2023-05-12T11:47:11.180Z,102034.88
2023-05-12T11:49:51.479Z,102036.34
2023-05-12T11:52:19.761Z,102030.03
2023-05-12T11:54:55.840Z,102028.56
2023-05-12T11:57:29.627Z,102030.75
2023-05-12T12:00:07.649Z,102033.22
2023-05-12T12:02:36.667Z,102033.06
2023-05-12T12:05:03.487Z,102034.09
2023-05-12T12:07:34.883Z,102041.78
2023-05-12T12:10:12.669Z,102042.78
2023-05-12T12:12:39.511Z,102040.72
2023-05-12T12:15:06.561Z,102037.31
2023-05-12T12:17:32.987Z,102033.19
2023-05-12T12:19:59.480Z,102037.84
2023-05-12T12:22:26.015Z,102034.69
2023-05-12T12:24:52.748Z,102037.34
2023-05-12T12:27:19.236Z,102034.94
2023-05-12T12:29:45.602Z,102028.13
2023-05-12T12:32:12.107Z,102034.63
2023-05-12T12:34:38.448Z,102038.94
2023-05-12T12:37:05.461Z,102038.63
2023-05-12T12:39:31.941Z,102042.44
2023-05-12T12:41:58.908Z,102036.13
2023-05-12T12:44:25.310Z,102043.63
2023-05-12T12:46:51.761Z,102046.19
2023-05-12T12:49:18.234Z,102040.25
2023-05-12T12:51:46.595Z,102043.22
2023-05-12T12:54:14.497Z,102041.31
2023-05-12T12:56:40.959Z,102043.66
2023-05-12T12:59:07.584Z,102040.63
2023-05-12T13:01:34.202Z,102043.06
2023-05-12T13:04:01.106Z,102046.16
2023-05-12T13:06:27.678Z,102039.31
2023-05-12T13:08:54.142Z,102037.88
2023-05-12T13:11:20.564Z,102042.34
2023-05-12T13:13:47.046Z,102027.03
2023-05-12T13:16:13.581Z,102039.31
2023-05-12T13:18:40.079Z,102034.25
2023-05-12T13:21:06.522Z,102033.53
2023-05-12T13:23:32.933Z,102036.97
2023-05-12T13:25:59.382Z,102044.34
2023-05-12T13:28:25.812Z,102034.63
2023-05-12T13:30:52.737Z,102038.19
2023-05-12T13:33:19.365Z,102028.69
2023-05-12T13:35:45.800Z,102027.91
2023-05-12T13:38:12.333Z,102032.94
2023-05-12T13:40:38.770Z,102034.09
2023-05-12T13:43:05.150Z,102031.16
2023-05-12T13:45:31.588Z,102035.56
2023-05-12T13:47:58.057Z,102027.16
2023-05-12T13:50:24.562Z,102037.34
2023-05-12T13:52:50.967Z,102028.19
2023-05-12T13:55:21.404Z,102028.69
2023-05-12T13:57:48.891Z,102028.19
2023-05-12T14:00:17.262Z,102033.41
2023-05-12T14:02:43.886Z,102030.59
2023-05-12T14:05:10.688Z,102032.19
2023-05-12T14:07:37.134Z,102041.06
2023-05-12T14:10:03.654Z,102021.78
2023-05-12T14:12:30.142Z,102019.19
2023-05-12T14:15:04.488Z,102027.19
2023-05-12T14:17:38.575Z,102025.53
2023-05-12T14:20:06.526Z,102019.16
2023-05-12T14:22:33.471Z,102020.38
2023-05-12T14:25:00.519Z,102017.97
2023-05-12T14:27:27.004Z,102016.94
2023-05-12T14:29:53.489Z,102023.75
2023-05-12T14:32:19.989Z,102023.00
2023-05-12T14:34:46.366Z,102025.00
2023-05-12T14:37:12.771Z,102022.44
2023-05-12T14:39:39.128Z,102017.44
2023-05-12T14:42:05.758Z,102012.16
2023-05-12T14:44:32.292Z,102023.56
2023-05-12T14:46:58.768Z,102021.41
2023-05-12T14:49:25.165Z,102027.38
2023-05-12T14:51:51.590Z,102018.41
2023-05-12T14:54:25.357Z,102016.13
2023-05-12T14:56:52.481Z,102027.19
2023-05-12T14:59:19.048Z,102017.44
2023-05-12T15:01:45.527Z,102013.22
2023-05-12T15:04:12.022Z,102018.31
2023-05-12T15:06:38.389Z,102015.44
2023-05-12T15:09:04.772Z,102017.28
2023-05-12T15:11:31.179Z,102016.03
2023-05-12T15:13:57.731Z,102019.69
2023-05-12T15:16:26.187Z,102013.97
2023-05-12T15:18:52.759Z,102019.78
2023-05-12T15:21:19.231Z,102017.81
2023-05-12T15:23:45.690Z,102019.78
2023-05-12T15:28:41.373Z,102011.47
2023-05-12T15:31:08.189Z,102012.91
2023-05-12T15:33:34.815Z,102010.38
2023-05-12T15:36:01.210Z,102014.56
2023-05-12T15:38:27.607Z,102012.63
2023-05-12T15:40:54.488Z,102025.47
2023-05-12T15:43:20.866Z,102039.16
2023-05-12T15:45:47.344Z,102041.56
2023-05-12T15:48:13.928Z,102049.97
2023-05-12T15:50:40.457Z,102071.97
2023-05-12T15:53:07.063Z,102084.66
2023-05-12T15:55:33.617Z,102082.81
2023-05-12T15:58:01.206Z,102060.88
2023-05-12T16:00:28.083Z,102052.19
2023-05-12T16:02:54.866Z,102048.97
2023-05-12T16:05:23.872Z,102049.06
2023-05-12T16:07:50.453Z,102042.47
2023-05-12T16:10:17.465Z,102038.91
2023-05-12T16:12:45.829Z,102055.59
2023-05-12T16:15:12.657Z,102042.59
2023-05-12T16:17:39.161Z,102050.16
2023-05-12T16:20:07.707Z,102054.25
2023-05-12T16:22:34.397Z,102056.09
2023-05-12T16:25:00.783Z,102053.66
2023-05-12T16:27:27.162Z,102052.34
2023-05-12T16:29:53.677Z,102052.00
2023-05-12T16:32:20.297Z,102046.09
2023-05-12T16:34:47.022Z,102048.00
2023-05-12T16:37:13.827Z,102044.38
2023-05-12T16:39:40.182Z,102052.38
2023-05-12T16:42:06.943Z,102045.47
2023-05-12T16:44:33.531Z,102043.41
2023-05-12T16:46:59.904Z,102042.81
2023-05-12T16:49:26.251Z,102047.91
2023-05-12T16:51:52.734Z,102043.38
2023-05-12T16:54:19.123Z,102046.53
2023-05-12T16:56:45.592Z,102046.06
2023-05-12T16:59:11.968Z,102054.13
2023-05-12T17:01:39.446Z,102048.00
2023-05-12T17:04:07.916Z,102047.34
2023-05-12T17:06:34.463Z,102058.56
2023-05-12T17:09:01.393Z,102065.97
2023-05-12T17:11:27.771Z,102063.25
2023-05-12T17:13:54.152Z,102065.97
2023-05-12T17:16:20.644Z,102064.06
2023-05-12T17:21:16.485Z,102059.47
2023-05-12T17:23:42.945Z,102063.00
2023-05-12T17:26:09.331Z,102065.88
2023-05-12T17:28:35.725Z,102062.63
2023-05-12T17:31:02.209Z,102069.38
2023-05-12T17:33:29.425Z,102069.41
2023-05-12T17:36:10.799Z,102074.03
2023-05-12T17:38:39.886Z,102069.88
2023-05-12T17:41:06.382Z,102075.06
2023-05-12T17:43:32.722Z,102071.41
2023-05-12T17:46:00.408Z,102079.97
2023-05-12T17:48:26.872Z,102067.94
2023-05-12T17:50:53.312Z,102078.66
2023-05-12T17:53:19.626Z,102074.31
2023-05-12T17:55:46.089Z,102080.38
2023-05-12T17:58:12.598Z,102079.44
2023-05-12T18:00:39.047Z,102085.78
2023-05-12T18:03:05.601Z,102086.69
2023-05-12T18:05:32.706Z,102084.44
2023-05-12T18:08:00.190Z,102096.16
2023-05-12T18:10:26.817Z,102092.38
2023-05-12T18:12:53.778Z,102096.03
2023-05-12T18:15:24.204Z,102096.03
2023-05-12T18:17:50.656Z,102097.81
2023-05-12T18:20:17.664Z,102092.34
2023-05-12T18:22:44.315Z,102105.59
2023-05-12T18:25:12.699Z,102096.19
2023-05-12T18:27:39.010Z,102104.06
2023-05-12T18:30:05.953Z,102101.75
2023-05-12T18:32:32.849Z,102104.38
2023-05-12T18:34:59.606Z,102103.00
2023-05-12T18:37:25.949Z,102106.84
2023-05-12T18:39:54.303Z,102103.56
2023-05-12T18:42:20.947Z,102108.81
2023-05-12T18:44:47.352Z,102111.34
2023-05-12T18:47:13.734Z,102120.22
2023-05-12T18:49:40.066Z,102116.56
2023-05-12T18:52:06.468Z,102127.13
2023-05-12T18:54:32.830Z,102121.88
2023-05-12T18:56:59.160Z,102126.69
2023-05-12T18:59:25.549Z,102127.75
2023-05-12T19:01:52.009Z,102128.31
2023-05-12T19:04:19.537Z,102127.66
2023-05-12T19:06:46.038Z,102144.94
2023-05-12T19:09:12.458Z,102150.41
2023-05-12T19:11:38.876Z,102149.69
2023-05-12T19:14:05.437Z,102157.09
2023-05-12T19:16:33.640Z,102156.94
2023-05-12T19:19:01.811Z,102155.38
2023-05-12T19:21:28.390Z,102150.31
2023-05-12T19:23:55.802Z,102161.31
2023-05-12T19:26:22.166Z,102169.28
2023-05-12T19:28:48.572Z,102174.94
2023-05-12T19:31:15.019Z,102170.94
2023-05-12T19:33:41.536Z,102183.75
2023-05-12T19:36:08.092Z,102180.56
2023-05-12T19:38:34.542Z,102183.06
2023-05-12T19:41:00.968Z,102186.38
2023-05-12T19:43:27.354Z,102189.97
2023-05-12T19:45:54.183Z,102197.44
2023-05-12T19:48:21.293Z,102195.41
2023-05-12T19:50:47.812Z,102191.63
2023-05-12T19:53:14.193Z,102190.84
2023-05-12T19:55:40.655Z,102204.50
2023-05-12T19:58:08.839Z,102209.09
2023-05-12T20:00:36.448Z,102205.34
2023-05-12T20:03:05.549Z,102200.25
2023-05-12T20:05:35.448Z,102209.50
2023-05-12T20:08:01.808Z,102211.16
2023-05-12T20:10:28.164Z,102199.00
2023-05-12T20:12:55.186Z,102210.94
2023-05-12T20:15:21.925Z,102211.75
2023-05-12T20:17:48.585Z,102217.19
2023-05-12T20:20:15.054Z,102210.19
2023-05-12T20:22:41.456Z,102215.09
2023-05-12T20:25:08.227Z,102214.59
2023-05-12T20:27:34.604Z,102220.00
2023-05-12T20:30:01.057Z,102224.63
2023-05-12T20:32:27.520Z,102226.28
2023-05-12T20:34:53.987Z,102233.31
2023-05-12T20:37:20.444Z,102222.78
2023-05-12T20:39:46.919Z,102232.53
2023-05-12T20:42:13.931Z,102227.41
2023-05-12T20:44:40.658Z,102224.16
2023-05-12T20:47:07.224Z,102235.53
2023-05-12T20:49:33.702Z,102239.34
2023-05-12T20:52:00.174Z,102242.59
2023-05-12T20:54:26.641Z,102235.03
2023-05-12T20:56:53.037Z,102250.16
2023-05-12T20:59:19.990Z,102245.03
2023-05-12T21:01:46.622Z,102248.56
2023-05-12T21:04:13.255Z,102252.34
2023-05-12T21:06:40.219Z,102255.53
2023-05-12T21:09:06.655Z,102252.03
2023-05-12T21:11:33.183Z,102250.16
2023-05-12T21:13:59.781Z,102252.59
2023-05-12T21:16:26.314Z,102257.44
2023-05-12T21:18:52.841Z,102262.31
2023-05-12T21:21:19.302Z,102263.13
2023-05-12T21:23:46.172Z,102262.03
2023-05-12T21:26:12.562Z,102262.00
2023-05-12T21:28:38.994Z,102266.06
2023-05-12T21:31:05.448Z,102265.53
2023-05-12T21:33:33.222Z,102277.13
2023-05-12T21:35:59.637Z,102274.97
2023-05-12T21:38:26.057Z,102269.56
2023-05-12T21:40:52.826Z,102274.94
2023-05-12T21:43:19.230Z,102278.16
2023-05-12T21:45:45.840Z,102277.09
2023-05-12T21:48:12.683Z,102283.03
2023-05-12T21:50:39.167Z,102279.78
2023-05-12T21:53:05.604Z,102281.66
2023-05-12T21:55:32.494Z,102284.06
2023-05-12T21:57:58.845Z,102281.09
2023-05-12T22:00:26.071Z,102291.91
2023-05-12T22:02:52.574Z,102291.91
2023-05-12T22:05:19.123Z,102288.38
2023-05-12T22:07:46.454Z,102295.69
2023-05-12T22:10:13.102Z,102288.66
2023-05-12T22:12:40.245Z,102294.03
2023-05-12T22:15:07.668Z,102292.66
2023-05-12T22:17:34.099Z,102293.22
2023-05-12T22:20:00.464Z,102299.44
2023-05-12T22:22:26.953Z,102300.25
2023-05-12T22:24:53.453Z,102305.09
2023-05-12T22:27:22.319Z,102304.03
2023-05-12T22:29:48.964Z,102295.63
2023-05-12T22:32:16.502Z,102301.31
2023-05-12T22:34:42.939Z,102299.41
2023-05-12T22:37:09.369Z,102306.16
2023-05-12T22:39:35.746Z,102309.16
2023-05-12T22:42:03.181Z,102307.50
2023-05-12T22:44:29.767Z,102305.66
2023-05-12T22:46:56.214Z,102316.97
2023-05-12T22:49:22.607Z,102318.03
2023-05-12T22:51:49.009Z,102319.38
2023-05-12T22:54:15.746Z,102313.97
2023-05-12T22:56:42.312Z,102315.31
2023-05-12T22:59:08.705Z,102311.81
2023-05-12T23:01:35.087Z,102305.56
2023-05-12T23:04:01.499Z,102307.19
2023-05-12T23:06:27.933Z,102308.28
2023-05-12T23:08:54.418Z,102312.31
2023-05-12T23:11:21.412Z,102317.16
2023-05-12T23:13:47.802Z,102317.44
2023-05-12T23:16:14.207Z,102308.22
2023-05-12T23:18:40.670Z,102316.09
2023-05-12T23:21:07.199Z,102312.00
2023-05-12T23:23:33.602Z,102313.06
2023-05-12T23:26:00.023Z,102312.28
2023-05-12T23:28:26.353Z,102316.31
2023-05-12T23:30:52.717Z,102311.44
2023-05-12T23:33:19.159Z,102308.44
2023-05-12T23:35:45.623Z,102310.00
2023-05-12T23:38:11.954Z,102310.53
2023-05-12T23:40:39.339Z,102305.63
2023-05-12T23:43:06.668Z,102303.47
2023-05-12T23:45:33.461Z,102307.75
2023-05-12T23:48:00.847Z,102307.47
2023-05-12T23:50:27.342Z,102307.16
2023-05-12T23:52:53.955Z,102305.81
2023-05-12T23:55:21.534Z,102305.50
2023-05-12T23:57:48.829Z,102299.56
